createdAt,value
2023-01-23T00:00:40.052Z,-5.21
2023-01-23T00:01:39.777Z,-5.21
2023-01-23T00:02:40.293Z,-5.26
2023-01-23T00:03:39.502Z,-5.2
2023-01-23T00:04:39.340Z,-5.23
2023-01-23T00:05:39.348Z,-5.22
2023-01-23T00:06:39.581Z,-5.27
2023-01-23T00:07:39.325Z,-5.23
2023-01-23T00:08:40.000Z,-5.22
2023-01-23T00:09:39.541Z,-5.2
2023-01-23T00:10:39.397Z,-5.19
2023-01-23T00:11:39.398Z,-5.2
2023-01-23T00:12:42.937Z,-5.18
2023-01-23T00:13:39.839Z,-5.19
2023-01-23T00:14:39.751Z,-5.2
2023-01-23T00:15:39.856Z,-5.26
2023-01-23T00:16:39.700Z,-5.29
2023-01-23T00:17:39.717Z,-5.25
2023-01-23T00:18:39.889Z,-5.27
2023-01-23T00:19:39.802Z,-5.21
2023-01-23T00:20:40.384Z,-5.14
2023-01-23T00:21:39.792Z,-5.18
2023-01-23T00:22:39.774Z,-5.14
2023-01-23T00:23:42.172Z,-5.23
2023-01-23T00:24:40.006Z,-5.31
2023-01-23T00:25:39.873Z,-5.12
2023-01-23T00:26:40.102Z,-5.09
2023-01-23T00:27:39.962Z,-5.22
2023-01-23T00:28:39.885Z,-5.23
2023-01-23T00:29:40.003Z,-5.21
2023-01-23T00:30:39.959Z,-5.24
2023-01-23T00:31:40.094Z,-5.21
2023-01-23T00:32:39.976Z,-5.2
2023-01-23T00:33:40.213Z,-5.13
2023-01-23T00:34:40.129Z,-5.18
2023-01-23T00:35:40.067Z,-5.16
2023-01-23T00:36:41.099Z,-5.18
2023-01-23T00:37:40.034Z,-5.12
2023-01-23T00:38:40.589Z,-5.24
2023-01-23T00:39:40.336Z,-5.2
2023-01-23T00:40:40.072Z,-5.2
2023-01-23T00:41:40.610Z,-5.16
2023-01-23T00:42:40.124Z,-5.12
2023-01-23T00:43:40.165Z,-5.11
2023-01-23T00:44:40.202Z,-5.07
2023-01-23T00:45:40.144Z,-5.1
2023-01-23T00:46:40.263Z,-5.12
2023-01-23T00:47:40.362Z,-5.19
2023-01-23T00:48:40.252Z,-5.19
2023-01-23T00:49:40.295Z,-5.19
2023-01-23T00:50:40.463Z,-5.15
2023-01-23T00:51:40.376Z,-5.15
2023-01-23T00:52:40.289Z,-5.13
2023-01-23T00:53:40.337Z,-5.14
2023-01-23T00:54:40.641Z,-5.11
2023-01-23T00:55:40.505Z,-5.11
2023-01-23T00:56:40.370Z,-5.1
2023-01-23T00:57:40.345Z,-5.17
2023-01-23T00:58:40.638Z,-5.09
2023-01-23T00:59:40.395Z,-5.12
2023-01-23T01:00:40.491Z,-5.15
2023-01-23T01:01:40.478Z,-5.16
2023-01-23T01:02:40.699Z,-5.12
2023-01-23T01:03:40.558Z,-5.12
2023-01-23T01:04:40.542Z,-5.1
2023-01-23T01:05:41.043Z,-5.11
2023-01-23T01:06:40.521Z,-5.06
2023-01-23T01:07:40.488Z,-5.11
2023-01-23T01:08:40.689Z,-5.14
2023-01-23T01:09:40.573Z,-5.09
2023-01-23T01:10:40.844Z,-5.06
2023-01-23T01:11:40.568Z,-5.06
2023-01-23T01:12:40.618Z,-5.09
2023-01-23T01:13:41.074Z,-5.11
2023-01-23T01:14:40.621Z,-5.08
2023-01-23T01:15:40.715Z,-5.09
2023-01-23T01:16:40.696Z,-5.09
2023-01-23T01:17:40.761Z,-5.05
2023-01-23T01:18:40.792Z,-5.09
2023-01-23T01:19:40.663Z,-5.11
2023-01-23T01:20:41.836Z,-5.11
2023-01-23T01:21:40.898Z,-5.09
2023-01-23T01:22:40.742Z,-5.03
2023-01-23T01:23:41.305Z,-5.02
2023-01-23T01:24:41.638Z,-5.07
2023-01-23T01:25:41.011Z,-5.01
2023-01-23T01:26:40.839Z,-4.99
2023-01-23T01:27:40.804Z,-5.06
2023-01-23T01:28:40.946Z,-5.09
2023-01-23T01:29:40.824Z,-4.99
2023-01-23T01:30:41.072Z,-5
2023-01-23T01:31:40.987Z,-4.98
2023-01-23T01:32:42.814Z,-5.02
2023-01-23T01:33:41.498Z,-5.03
2023-01-23T01:34:40.945Z,-5.01
2023-01-23T01:35:40.936Z,-5.01
2023-01-23T01:36:41.071Z,-4.99
2023-01-23T01:37:41.175Z,-5
2023-01-23T01:38:41.265Z,-4.98
2023-01-23T01:39:40.939Z,-5.03
2023-01-23T01:40:41.322Z,-5.03
2023-01-23T01:41:40.947Z,-4.98
2023-01-23T01:42:45.285Z,-4.94
2023-01-23T01:43:42.182Z,-4.99
2023-01-23T01:44:55.924Z,-5.04
2023-01-23T01:46:46.240Z,-5.02
2023-01-23T01:47:46.131Z,-4.99
2023-01-23T01:48:50.072Z,-5
2023-01-23T01:49:47.193Z,-4.97
2023-01-23T01:50:47.341Z,-4.95
2023-01-23T01:51:59.112Z,-4.96
2023-01-23T01:52:50.806Z,-4.97
2023-01-23T01:53:55.051Z,-4.99
2023-01-23T01:54:58.969Z,-4.96
2023-01-23T01:55:56.559Z,-4.96
2023-01-23T01:57:01.733Z,-5.06
2023-01-23T01:57:58.461Z,-5.01
2023-01-23T01:59:00.161Z,-4.97
2023-01-23T02:00:09.576Z,-4.95
2023-01-23T02:01:01.385Z,-5.03
2023-01-23T02:02:10.989Z,-4.98
2023-01-23T02:03:03.213Z,-4.98
2023-01-23T02:04:03.909Z,-5.01
2023-01-23T02:05:05.665Z,-5.01
2023-01-23T02:06:03.161Z,-4.97
2023-01-23T02:07:05.548Z,-4.99
2023-01-23T02:08:06.721Z,-4.96
2023-01-23T02:09:10.430Z,-4.89
2023-01-23T02:10:07.867Z,-4.92
2023-01-23T02:11:07.425Z,-4.94
2023-01-23T02:12:08.472Z,-4.96
2023-01-23T02:14:11.349Z,-4.91
2023-01-23T02:15:10.937Z,-4.95
2023-01-23T02:16:19.176Z,-4.92
2023-01-23T02:17:15.964Z,-4.92
2023-01-23T02:18:16.083Z,-4.95
2023-01-23T02:21:22.302Z,-4.92
2023-01-23T02:26:30.478Z,-4.95
2023-01-23T02:27:29.064Z,-4.93
2023-01-23T02:29:40.443Z,-4.96
2023-01-23T02:30:32.103Z,-4.97
2023-01-23T02:31:32.366Z,-4.91
2023-01-23T02:32:32.171Z,-4.91
2023-01-23T02:33:43.133Z,-4.91
2023-01-23T02:34:34.804Z,-4.94
2023-01-23T02:35:35.360Z,-4.88
2023-01-23T02:36:35.077Z,-4.9
2023-01-23T02:37:36.504Z,-4.85
2023-01-23T02:39:35.995Z,-4.89
2023-01-23T02:40:37.565Z,-4.83
2023-01-23T02:42:39.700Z,-4.87
2023-01-23T02:43:37.658Z,-4.83
2023-01-23T02:44:37.485Z,-4.85
2023-01-23T02:45:37.474Z,-4.87
2023-01-23T02:46:37.474Z,-4.9
2023-01-23T02:47:37.501Z,-4.89
2023-01-23T02:48:38.093Z,-4.86
2023-01-23T02:49:38.273Z,-4.85
2023-01-23T02:50:37.531Z,-4.86
2023-01-23T02:51:37.573Z,-4.8
2023-01-23T02:52:37.588Z,-4.85
2023-01-23T02:53:37.595Z,-4.85
2023-01-23T02:54:37.612Z,-4.83
2023-01-23T02:55:37.738Z,-4.86
2023-01-23T02:56:37.634Z,-4.83
2023-01-23T02:57:37.833Z,-4.85
2023-01-23T02:58:37.762Z,-4.82
2023-01-23T02:59:37.638Z,-4.84
2023-01-23T03:00:37.742Z,-4.84
2023-01-23T03:01:37.695Z,-4.81
2023-01-23T03:02:37.704Z,-4.85
2023-01-23T03:03:37.953Z,-4.82
2023-01-23T03:04:37.719Z,-4.82
2023-01-23T03:05:37.723Z,-4.82
2023-01-23T03:06:37.886Z,-4.77
2023-01-23T03:07:37.805Z,-4.83
2023-01-23T03:08:37.753Z,-4.85
2023-01-23T03:09:37.761Z,-4.81
2023-01-23T03:10:37.805Z,-4.8
2023-01-23T03:11:38.964Z,-4.83
2023-01-23T03:12:37.878Z,-4.86
2023-01-23T03:13:37.859Z,-4.85
2023-01-23T03:14:37.833Z,-4.82
2023-01-23T03:15:38.071Z,-4.86
2023-01-23T03:16:38.546Z,-4.76
2023-01-23T03:17:37.873Z,-4.78
2023-01-23T03:18:52.746Z,-4.8
2023-01-23T03:19:40.542Z,-4.79
2023-01-23T03:20:41.292Z,-4.78
2023-01-23T03:21:40.567Z,-4.78
2023-01-23T03:22:40.815Z,-4.79
2023-01-23T03:23:40.603Z,-4.75
2023-01-23T03:24:40.715Z,-4.71
2023-01-23T03:25:43.670Z,-4.71
2023-01-23T03:26:41.738Z,-4.79
2023-01-23T03:27:40.643Z,-4.77
2023-01-23T03:28:40.636Z,-4.74
2023-01-23T03:29:40.630Z,-4.79
2023-01-23T03:30:40.635Z,-4.77
2023-01-23T03:31:41.119Z,-4.76
2023-01-23T03:32:41.077Z,-4.77
2023-01-23T03:33:40.706Z,-4.85
2023-01-23T03:34:41.070Z,-4.81
2023-01-23T03:35:40.703Z,-4.79
2023-01-23T03:36:40.659Z,-4.79
2023-01-23T03:37:41.010Z,-4.79
2023-01-23T03:38:40.700Z,-4.8
2023-01-23T03:39:40.796Z,-4.77
2023-01-23T03:40:40.744Z,-4.82
2023-01-23T03:41:40.753Z,-4.84
2023-01-23T03:42:40.811Z,-4.77
2023-01-23T03:43:40.759Z,-4.77
2023-01-23T03:44:40.840Z,-4.77
2023-01-23T03:45:40.859Z,-4.74
2023-01-23T03:46:40.864Z,-4.75
2023-01-23T03:47:40.871Z,-4.75
2023-01-23T03:48:40.971Z,-4.73
2023-01-23T03:49:40.868Z,-4.79
2023-01-23T03:50:40.937Z,-4.77
2023-01-23T03:51:40.900Z,-4.79
2023-01-23T03:52:40.935Z,-4.8
2023-01-23T03:53:41.096Z,-4.79
2023-01-23T03:54:40.980Z,-4.76
2023-01-23T03:55:40.962Z,-4.74
2023-01-23T03:56:41.540Z,-4.79
2023-01-23T03:57:41.031Z,-4.84
2023-01-23T03:58:41.126Z,-4.84
2023-01-23T03:59:41.017Z,-4.87
2023-01-23T04:00:41.142Z,-4.83
2023-01-23T04:01:41.183Z,-4.89
2023-01-23T04:02:41.193Z,-4.81
2023-01-23T04:03:41.181Z,-4.83
2023-01-23T04:04:41.192Z,-4.85
2023-01-23T04:05:41.064Z,-4.81
2023-01-23T04:06:41.099Z,-4.77
2023-01-23T04:07:41.288Z,-4.78
2023-01-23T04:08:41.284Z,-4.89
2023-01-23T04:09:41.165Z,-4.91
2023-01-23T04:10:41.829Z,-4.88
2023-01-23T04:11:41.118Z,-4.83
2023-01-23T04:12:44.146Z,-4.89
2023-01-23T04:13:41.355Z,-4.9
2023-01-23T04:14:41.260Z,-4.8
2023-01-23T04:15:41.222Z,-4.9
2023-01-23T04:16:41.321Z,-4.95
2023-01-23T04:17:42.398Z,-4.91
2023-01-23T04:18:41.532Z,-4.95
2023-01-23T04:19:41.289Z,-4.87
2023-01-23T04:20:41.341Z,-4.96
2023-01-23T04:21:41.302Z,-4.85
2023-01-23T04:22:41.405Z,-4.93
2023-01-23T04:23:41.540Z,-4.96
2023-01-23T04:24:41.335Z,-4.92
2023-01-23T04:25:41.310Z,-4.93
2023-01-23T04:26:41.391Z,-4.95
2023-01-23T04:27:41.496Z,-4.95
2023-01-23T04:28:41.438Z,-4.96
2023-01-23T04:29:41.416Z,-4.97
2023-01-23T04:30:41.609Z,-4.96
2023-01-23T04:31:42.166Z,-4.96
2023-01-23T04:32:42.074Z,-4.97
2023-01-23T04:33:42.128Z,-4.98
2023-01-23T04:34:42.040Z,-4.95
2023-01-23T04:35:48.977Z,-4.99
2023-01-23T04:36:45.649Z,-4.96
2023-01-23T04:37:45.631Z,-4.97
2023-01-23T04:38:45.642Z,-4.97
2023-01-23T04:39:45.665Z,-5.01
2023-01-23T04:40:46.663Z,-4.98
2023-01-23T04:41:45.708Z,-4.96
2023-01-23T04:42:45.706Z,-4.95
2023-01-23T04:43:45.869Z,-4.97
2023-01-23T04:44:45.831Z,-5.01
2023-01-23T04:45:46.099Z,-4.97
2023-01-23T04:46:52.530Z,-5.02
2023-01-23T04:47:49.168Z,-4.97
2023-01-23T04:48:49.289Z,-5
2023-01-23T04:49:49.198Z,-4.99
2023-01-23T04:50:49.633Z,-5.02
2023-01-23T04:51:49.366Z,-5.02
2023-01-23T04:52:49.220Z,-4.98
2023-01-23T04:53:49.285Z,-4.98
2023-01-23T04:54:49.239Z,-4.99
2023-01-23T04:55:49.545Z,-4.99
2023-01-23T04:56:49.261Z,-5
2023-01-23T04:57:49.353Z,-4.96
2023-01-23T04:58:49.362Z,-5.03
2023-01-23T04:59:49.504Z,-5.01
2023-01-23T05:00:49.335Z,-5
2023-01-23T05:01:49.384Z,-4.98
2023-01-23T05:02:49.872Z,-4.97
2023-01-23T05:03:51.503Z,-4.96
2023-01-23T05:04:49.583Z,-5.03
2023-01-23T05:05:49.393Z,-4.97
2023-01-23T05:06:49.524Z,-5
2023-01-23T05:07:50.130Z,-5.01
2023-01-23T05:08:51.516Z,-5
2023-01-23T05:09:49.444Z,-5.01
2023-01-23T05:10:49.603Z,-4.94
2023-01-23T05:11:49.460Z,-4.93
2023-01-23T05:12:49.522Z,-4.95
2023-01-23T05:13:49.536Z,-4.96
2023-01-23T05:14:49.496Z,-4.91
2023-01-23T05:15:49.619Z,-4.88
2023-01-23T05:16:49.513Z,-4.93
2023-01-23T05:17:49.838Z,-4.97
2023-01-23T05:18:49.664Z,-5.05
2023-01-23T05:19:49.558Z,-5.04
2023-01-23T05:20:49.534Z,-5.06
2023-01-23T05:21:49.646Z,-5.01
2023-01-23T05:22:50.610Z,-5.04
2023-01-23T05:23:50.087Z,-5.01
2023-01-23T05:24:50.064Z,-5.01
2023-01-23T05:25:50.338Z,-5.06
2023-01-23T05:26:50.131Z,-5.04
2023-01-23T05:27:50.584Z,-4.99
2023-01-23T05:28:50.080Z,-4.9
2023-01-23T05:29:50.126Z,-4.97
2023-01-23T05:30:50.241Z,-5.03
2023-01-23T05:31:50.319Z,-4.94
2023-01-23T05:32:50.212Z,-5
2023-01-23T05:33:50.161Z,-5
2023-01-23T05:34:50.196Z,-4.96
2023-01-23T05:35:50.241Z,-4.98
2023-01-23T05:36:50.193Z,-5.01
2023-01-23T05:37:51.045Z,-5.04
2023-01-23T05:38:50.219Z,-4.97
2023-01-23T05:39:50.304Z,-4.96
2023-01-23T05:40:50.296Z,-4.96
2023-01-23T05:41:50.355Z,-4.94
2023-01-23T05:42:50.367Z,-4.9
2023-01-23T05:43:50.499Z,-4.97
2023-01-23T05:44:50.360Z,-4.93
2023-01-23T05:45:50.523Z,-4.98
2023-01-23T05:46:50.377Z,-4.95
2023-01-23T05:47:50.433Z,-4.96
2023-01-23T05:48:51.272Z,-4.99
2023-01-23T05:49:50.491Z,-4.99
2023-01-23T05:50:50.448Z,-5.03
2023-01-23T05:51:50.449Z,-5
2023-01-23T05:52:50.729Z,-4.99
2023-01-23T05:53:50.489Z,-5.05
2023-01-23T05:54:50.594Z,-5.02
2023-01-23T05:55:50.495Z,-5.08
2023-01-23T05:56:50.462Z,-5.03
2023-01-23T05:57:50.729Z,-4.98
2023-01-23T05:58:50.642Z,-5.03
2023-01-23T05:59:50.802Z,-5.04
2023-01-23T06:00:50.514Z,-5.02
2023-01-23T06:01:50.532Z,-5.04
2023-01-23T06:02:50.658Z,-4.99
2023-01-23T06:03:50.798Z,-4.99
2023-01-23T06:04:50.688Z,-5.01
2023-01-23T06:05:50.670Z,-5.08
2023-01-23T06:06:51.226Z,-5.03
2023-01-23T06:07:50.651Z,-5.01
2023-01-23T06:08:53.287Z,-5.08
2023-01-23T06:09:50.737Z,-5.08
2023-01-23T06:10:50.763Z,-5.07
2023-01-23T06:11:50.720Z,-5.04
2023-01-23T06:12:50.711Z,-4.99
2023-01-23T06:13:50.875Z,-5
2023-01-23T06:14:50.930Z,-4.98
2023-01-23T06:15:50.797Z,-5.02
2023-01-23T06:16:50.853Z,-5.02
2023-01-23T06:17:50.825Z,-4.89
2023-01-23T06:18:50.861Z,-5.02
2023-01-23T06:19:50.828Z,-4.98
2023-01-23T06:20:56.646Z,-5.02
2023-01-23T06:21:53.323Z,-4.9
2023-01-23T06:22:53.333Z,-4.94
2023-01-23T06:23:55.555Z,-5.01
2023-01-23T06:24:53.911Z,-4.97
2023-01-23T06:25:54.152Z,-4.91
2023-01-23T06:26:53.972Z,-4.96
2023-01-23T06:27:55.108Z,-4.97
2023-01-23T06:28:54.142Z,-5.03
2023-01-23T06:29:53.977Z,-4.97
2023-01-23T06:30:54.158Z,-4.94
2023-01-23T06:31:54.077Z,-5.03
2023-01-23T06:32:54.051Z,-5.06
2023-01-23T06:33:54.014Z,-5.14
2023-01-23T06:34:54.025Z,-5.13
2023-01-23T06:35:57.623Z,-5.19
2023-01-23T06:36:54.350Z,-5.19
2023-01-23T06:37:54.304Z,-5.19
2023-01-23T06:38:54.294Z,-5.11
2023-01-23T06:39:54.499Z,-5.15
2023-01-23T06:40:54.549Z,-5.08
2023-01-23T06:41:54.575Z,-5.11
2023-01-23T06:42:55.169Z,-5.12
2023-01-23T06:43:54.518Z,-5.01
2023-01-23T06:44:54.426Z,-5.08
2023-01-23T06:45:57.269Z,-5.08
2023-01-23T06:46:54.620Z,-5.06
2023-01-23T06:47:54.521Z,-5.1
2023-01-23T06:48:54.617Z,-5.03
2023-01-23T06:49:54.554Z,-4.99
2023-01-23T06:50:54.605Z,-5.1
2023-01-23T06:51:54.547Z,-5.1
2023-01-23T06:52:54.764Z,-5.11
2023-01-23T06:53:54.595Z,-5.05
2023-01-23T06:54:54.633Z,-5
2023-01-23T06:55:58.972Z,-5.06
2023-01-23T06:56:55.673Z,-5.05
2023-01-23T06:57:55.689Z,-5.07
2023-01-23T06:58:55.853Z,-5.07
2023-01-23T06:59:55.827Z,-5.09
2023-01-23T07:00:55.865Z,-5.13
2023-01-23T07:01:56.033Z,-5.12
2023-01-23T07:02:56.095Z,-5.07
2023-01-23T07:03:56.129Z,-5.05
2023-01-23T07:04:55.897Z,-5.04
2023-01-23T07:05:55.942Z,-4.99
2023-01-23T07:06:55.968Z,-5
2023-01-23T07:07:56.039Z,-4.98
2023-01-23T07:08:56.014Z,-5.02
2023-01-23T07:09:56.018Z,-4.94
2023-01-23T07:10:56.029Z,-4.98
2023-01-23T07:11:56.023Z,-4.98
2023-01-23T07:12:56.080Z,-5.06
2023-01-23T07:13:56.210Z,-5.04
2023-01-23T07:14:56.086Z,-4.97
2023-01-23T07:15:56.184Z,-4.96
2023-01-23T07:16:56.100Z,-4.92
2023-01-23T07:17:57.145Z,-4.99
2023-01-23T07:18:56.720Z,-5.03
2023-01-23T07:19:56.149Z,-5.02
2023-01-23T07:20:56.229Z,-5.01
2023-01-23T07:21:56.243Z,-5.07
2023-01-23T07:22:57.077Z,-5.09
2023-01-23T07:23:56.235Z,-5.06
2023-01-23T07:24:56.236Z,-5.07
2023-01-23T07:26:00.246Z,-5.07
2023-01-23T07:26:57.188Z,-5.11
2023-01-23T07:27:56.905Z,-5.04
2023-01-23T07:28:58.256Z,-5.06
2023-01-23T07:29:56.961Z,-5.02
2023-01-23T07:30:57.618Z,-5.03
2023-01-23T07:31:58.450Z,-4.97
2023-01-23T07:32:57.020Z,-5
2023-01-23T07:34:01.671Z,-5.05
2023-01-23T07:35:03.179Z,-5.06
2023-01-23T07:36:05.236Z,-5.02
2023-01-23T07:37:06.751Z,-5.05
2023-01-23T07:38:08.397Z,-5.01
2023-01-23T07:39:09.905Z,-4.96
2023-01-23T07:40:11.798Z,-5.04
2023-01-23T07:41:13.200Z,-5.02
2023-01-23T07:42:14.556Z,-4.98
2023-01-23T07:43:16.133Z,-4.83
2023-01-23T07:44:19.251Z,-4.87
2023-01-23T07:45:20.588Z,-4.83
2023-01-23T07:46:21.994Z,-4.83
2023-01-23T07:47:23.430Z,-4.81
2023-01-23T07:48:24.969Z,-4.88
2023-01-23T07:49:26.345Z,-4.87
2023-01-23T07:50:27.785Z,-4.9
2023-01-23T07:51:29.211Z,-4.92
2023-01-23T07:52:30.582Z,-4.88
2023-01-23T07:53:31.982Z,-4.86
2023-01-23T07:54:33.507Z,-4.88
2023-01-23T07:55:37.793Z,-4.89
2023-01-23T07:56:39.149Z,-4.92
2023-01-23T07:57:40.550Z,-4.99
2023-01-23T07:58:41.975Z,-4.96
2023-01-23T07:59:43.375Z,-4.89
2023-01-23T08:00:44.760Z,-4.81
2023-01-23T08:01:46.284Z,-4.82
2023-01-23T08:02:47.728Z,-4.86
2023-01-23T08:03:49.198Z,-4.81
2023-01-23T08:04:50.864Z,-4.8
2023-01-23T08:05:52.216Z,-4.82
2023-01-23T08:06:53.581Z,-4.82
2023-01-23T08:08:11.484Z,-4.88
2023-01-23T08:08:53.800Z,-4.77
2023-01-23T08:09:54.066Z,-4.78
2023-01-23T08:10:54.080Z,-4.76
2023-01-23T08:11:54.438Z,-4.81
2023-01-23T08:12:54.407Z,-4.91
2023-01-23T08:13:54.588Z,-4.95
2023-01-23T08:14:54.685Z,-4.94
2023-01-23T08:15:58.741Z,-4.9
2023-01-23T08:16:58.189Z,-4.86
2023-01-23T08:17:58.097Z,-4.78
2023-01-23T08:18:58.242Z,-4.84
2023-01-23T08:19:58.369Z,-4.86
2023-01-23T08:21:00.354Z,-4.9
2023-01-23T08:21:58.675Z,-4.94
2023-01-23T08:22:58.764Z,-4.89
2023-01-23T08:24:00.893Z,-4.81
2023-01-23T08:24:59.208Z,-4.78
2023-01-23T08:26:00.371Z,-4.68
2023-01-23T08:26:59.314Z,-4.76
2023-01-23T08:27:59.440Z,-4.79
2023-01-23T08:28:59.995Z,-4.82
2023-01-23T08:29:59.756Z,-4.84
2023-01-23T08:31:00.836Z,-4.89
2023-01-23T08:32:00.273Z,-4.8
2023-01-23T08:33:00.224Z,-4.74
2023-01-23T08:34:00.408Z,-4.66
2023-01-23T08:35:00.621Z,-4.7
2023-01-23T08:36:00.985Z,-4.73
2023-01-23T08:37:00.801Z,-4.76
2023-01-23T08:38:01.020Z,-4.81
2023-01-23T08:39:01.211Z,-4.78
2023-01-23T08:40:01.276Z,-4.73
2023-01-23T08:41:01.588Z,-4.76
2023-01-23T08:42:01.111Z,-4.77
2023-01-23T08:43:01.398Z,-4.71
2023-01-23T08:44:01.407Z,-4.67
2023-01-23T08:45:01.169Z,-4.69
2023-01-23T08:46:01.668Z,-4.73
2023-01-23T08:47:01.771Z,-4.73
2023-01-23T08:48:01.253Z,-4.67
2023-01-23T08:49:01.177Z,-4.69
2023-01-23T08:50:01.321Z,-4.63
2023-01-23T08:52:05.498Z,-4.66
2023-01-23T08:53:05.498Z,-4.6
2023-01-23T08:54:05.548Z,-4.63
2023-01-23T08:55:06.228Z,-4.65
2023-01-23T08:56:07.116Z,-4.67
2023-01-23T08:57:05.351Z,-4.62
2023-01-23T08:58:06.084Z,-4.63
2023-01-23T08:59:05.358Z,-4.65
2023-01-23T09:00:05.916Z,-4.68
2023-01-23T09:01:05.465Z,-4.61
2023-01-23T09:02:05.505Z,-4.56
2023-01-23T09:03:05.441Z,-4.53
2023-01-23T09:04:05.464Z,-4.51
2023-01-23T09:05:06.156Z,-4.5
2023-01-23T09:06:05.784Z,-4.53
2023-01-23T09:07:05.505Z,-4.53
2023-01-23T09:08:05.531Z,-4.51
2023-01-23T09:09:05.552Z,-4.54
2023-01-23T09:10:06.021Z,-4.52
2023-01-23T09:11:06.323Z,-4.55
2023-01-23T09:12:05.788Z,-4.48
2023-01-23T09:13:05.664Z,-4.46
2023-01-23T09:14:05.651Z,-4.32
2023-01-23T09:15:06.280Z,-4.33
2023-01-23T09:16:06.401Z,-4.24
2023-01-23T09:17:05.667Z,-4.22
2023-01-23T09:18:06.000Z,-4.27
2023-01-23T09:19:05.678Z,-4.53
2023-01-23T09:20:06.272Z,-4.49
2023-01-23T09:21:09.609Z,-4.44
2023-01-23T09:22:05.858Z,-4.39
2023-01-23T09:23:05.848Z,-4.22
2023-01-23T09:24:06.278Z,-4.15
2023-01-23T09:25:06.446Z,-4.21
2023-01-23T09:26:10.085Z,-4.32
2023-01-23T09:27:06.600Z,-4.49
2023-01-23T09:28:06.385Z,-4.56
2023-01-23T09:29:06.337Z,-4.49
2023-01-23T09:30:07.064Z,-4.52
2023-01-23T09:31:07.455Z,-4.57
2023-01-23T09:32:06.399Z,-4.54
2023-01-23T09:33:06.464Z,-4.57
2023-01-23T09:34:06.391Z,-4.54
2023-01-23T09:35:06.860Z,-4.47
2023-01-23T09:36:06.994Z,-4.54
2023-01-23T09:37:06.487Z,-4.56
2023-01-23T09:38:06.472Z,-4.56
2023-01-23T09:39:06.467Z,-4.57
2023-01-23T09:40:07.234Z,-4.56
2023-01-23T09:45:19.693Z,-4.57
2023-01-23T09:47:26.846Z,-4.56
2023-01-23T09:48:27.715Z,-4.55
2023-01-23T09:49:30.112Z,-4.53
2023-01-23T09:50:32.885Z,-4.57
2023-01-23T09:53:35.536Z,-4.54
2023-01-23T09:55:43.749Z,-4.5
2023-01-23T09:56:38.324Z,-4.55
2023-01-23T09:57:37.205Z,-4.6
2023-01-23T09:58:37.111Z,-4.57
2023-01-23T09:59:53.914Z,-4.53
2023-01-23T10:00:39.240Z,-4.53
2023-01-23T10:01:39.427Z,-4.56
2023-01-23T10:02:41.824Z,-4.53
2023-01-23T10:03:39.521Z,-4.53
2023-01-23T10:04:39.314Z,-4.52
2023-01-23T10:25:36.888Z,-4.55
2023-01-23T10:26:41.290Z,-4.49
2023-01-23T10:27:42.174Z,-4.51
2023-01-23T10:28:39.212Z,-4.53
2023-01-23T10:29:40.293Z,-4.6
2023-01-23T10:30:40.139Z,-4.61
2023-01-23T10:31:50.923Z,-4.52
2023-01-23T10:32:47.106Z,-4.47
2023-01-23T10:34:51.796Z,-4.48
2023-01-23T10:38:56.987Z,-4.47
2023-01-23T10:40:54.412Z,-4.52
2023-01-23T10:42:01.953Z,-4.44
2023-01-23T10:42:54.549Z,-4.55
2023-01-23T10:43:54.991Z,-4.47
2023-01-23T10:44:54.866Z,-4.52
2023-01-23T10:45:54.648Z,-4.49
2023-01-23T10:46:56.074Z,-4.51
2023-01-23T10:47:55.563Z,-4.54
2023-01-23T10:48:54.757Z,-4.51
2023-01-23T10:49:54.747Z,-4.48
2023-01-23T10:50:54.784Z,-4.53
2023-01-23T10:51:54.964Z,-4.49
2023-01-23T10:53:05.032Z,-4.42
2023-01-23T10:55:00.026Z,-4.49
2023-01-23T10:56:03.356Z,-4.49
2023-01-23T10:58:05.260Z,-4.57
2023-01-23T10:59:06.857Z,-4.56
2023-01-23T11:04:19.682Z,-4.54
2023-01-23T11:06:17.803Z,-4.4
2023-01-23T11:07:18.418Z,-4.48
2023-01-23T11:09:20.479Z,-4.4
2023-01-23T11:10:20.597Z,-4.4
2023-01-23T11:12:21.125Z,-4.28
2023-01-23T11:14:20.853Z,-4.27
2023-01-23T11:15:23.375Z,-4.23
2023-01-23T11:16:22.019Z,-4.27
2023-01-23T11:17:25.930Z,-4.29
2023-01-23T11:19:27.050Z,-4.41
2023-01-23T11:20:35.395Z,-4.54
2023-01-23T11:21:28.393Z,-4.52
2023-01-23T11:22:32.728Z,-4.48
2023-01-23T11:23:29.626Z,-4.42
2023-01-23T11:24:41.504Z,-4.42
2023-01-23T11:25:38.352Z,-4.36
2023-01-23T11:26:36.100Z,-4.44
2023-01-23T11:27:35.175Z,-4.53
2023-01-23T11:28:46.541Z,-4.58
2023-01-23T11:31:44.664Z,-4.5
2023-01-23T11:34:56.401Z,-4.46
2023-01-23T11:37:55.852Z,-4.41
2023-01-23T11:38:59.107Z,-4.47
2023-01-23T11:40:59.308Z,-4.42
2023-01-23T11:41:59.361Z,-4.43
2023-01-23T11:42:59.246Z,-4.42
2023-01-23T11:44:00.854Z,-4.41
2023-01-23T11:44:59.946Z,-4.33
2023-01-23T11:52:23.862Z,-4.37
2023-01-23T11:53:22.499Z,-4.42
2023-01-23T12:11:13.847Z,-4.7
2023-01-23T12:25:37.687Z,-4.76
2023-01-23T12:26:39.814Z,-4.8
2023-01-23T12:27:41.630Z,-4.72
2023-01-23T12:29:49.822Z,-4.76
2023-01-23T12:31:59.980Z,-4.64
2023-01-23T12:35:01.212Z,-4.7
2023-01-23T12:35:59.366Z,-4.77
2023-01-23T12:40:12.531Z,-4.82
2023-01-23T12:41:11.813Z,-4.77
2023-01-23T12:42:12.015Z,-4.86
2023-01-23T12:43:14.408Z,-4.76
2023-01-23T12:44:18.011Z,-4.81
2023-01-23T12:45:19.132Z,-4.78
2023-01-23T12:46:19.239Z,-4.85
2023-01-23T12:47:19.499Z,-4.83
2023-01-23T12:48:19.327Z,-4.79
2023-01-23T12:51:22.841Z,-4.85
2023-01-23T12:53:23.005Z,-4.92
2023-01-23T12:54:30.001Z,-4.87
2023-01-23T12:55:38.111Z,-4.87
2023-01-23T12:56:33.352Z,-4.88
2023-01-23T12:57:40.342Z,-4.79
2023-01-23T12:58:35.197Z,-4.81
2023-01-23T13:06:56.463Z,-4.81
2023-01-23T13:08:03.068Z,-4.75
2023-01-23T13:11:10.374Z,-4.75
2023-01-23T13:12:10.696Z,-4.71
2023-01-23T13:13:02.527Z,-4.64
2023-01-23T13:14:02.465Z,-4.61
2023-01-23T13:16:16.359Z,-4.66
2023-01-23T13:19:20.083Z,-4.7
2023-01-23T13:21:12.804Z,-4.61
2023-01-23T13:25:19.254Z,-4.67
2023-01-23T13:26:27.423Z,-4.69
2023-01-23T13:30:37.042Z,-4.58
2023-01-23T13:31:37.546Z,-4.64
2023-01-23T13:32:35.247Z,-4.64
2023-01-23T13:34:37.448Z,-4.63
2023-01-23T13:36:38.357Z,-4.56
2023-01-23T13:38:39.493Z,-4.61
2023-01-23T13:41:44.940Z,-4.62
2023-01-23T13:42:43.928Z,-4.6
2023-01-23T13:45:50.519Z,-4.62
2023-01-23T14:21:00.686Z,-4.44
2023-01-23T14:22:03.405Z,-4.45
2023-01-23T14:23:00.294Z,-4.46
2023-01-23T14:24:01.377Z,-4.45
2023-01-23T14:25:00.276Z,-4.43
2023-01-23T14:26:00.469Z,-4.42
2023-01-23T14:27:07.503Z,-4.46
2023-01-23T14:28:05.431Z,-4.43
2023-01-23T14:29:18.509Z,-4.37
2023-01-23T14:30:19.415Z,-4.4
2023-01-23T14:31:07.264Z,-4.43
2023-01-23T14:33:17.372Z,-4.41
2023-01-23T14:34:18.630Z,-4.4
2023-01-23T14:35:23.020Z,-4.35
2023-01-23T14:36:19.124Z,-4.34
2023-01-23T14:37:20.026Z,-4.32
2023-01-23T14:39:19.808Z,-4.29
2023-01-23T14:40:27.155Z,-4.32
2023-01-23T14:41:27.923Z,-4.34
2023-01-23T14:42:27.608Z,-4.32
2023-01-23T14:43:26.101Z,-4.35
2023-01-23T14:44:27.279Z,-4.21
2023-01-23T14:45:24.550Z,-4.23
2023-01-23T14:46:37.881Z,-4.25
2023-01-23T14:47:37.946Z,-4.25
2023-01-23T14:48:26.824Z,-4.28
2023-01-23T14:49:34.579Z,-4.24
2023-01-23T14:50:27.638Z,-4.25
2023-01-23T14:51:27.146Z,-4.23
2023-01-23T14:52:30.096Z,-4.25
2023-01-23T14:53:27.007Z,-4.25
2023-01-23T14:54:32.580Z,-4.23
2023-01-23T14:55:30.421Z,-4.25
2023-01-23T14:56:36.859Z,-4.2
2023-01-23T14:57:33.984Z,-4.24
2023-01-23T14:58:33.603Z,-4.23
2023-01-23T14:59:38.053Z,-4.19
2023-01-23T15:00:35.561Z,-4.19
2023-01-23T15:01:35.976Z,-4.22
2023-01-23T15:02:35.883Z,-4.23
2023-01-23T15:03:35.749Z,-4.19
2023-01-23T15:04:34.857Z,-4.11
2023-01-23T15:05:34.839Z,-4.1
2023-01-23T15:06:35.533Z,-4.07
2023-01-23T15:07:35.827Z,-4.1
2023-01-23T15:08:35.132Z,-4.14
2023-01-23T15:09:39.024Z,-4.08
2023-01-23T15:10:43.689Z,-4.06
2023-01-23T15:11:40.699Z,-4.11
2023-01-23T15:12:46.882Z,-4.05
2023-01-23T15:13:55.020Z,-4.14
2023-01-23T15:14:52.131Z,-4.16
2023-01-23T15:15:55.122Z,-4.14
2023-01-23T15:16:58.500Z,-4.07
2023-01-23T15:17:56.454Z,-3.99
2023-01-23T15:18:59.167Z,-4.05
2023-01-23T15:19:55.866Z,-4.05
2023-01-23T15:21:00.059Z,-4.07
2023-01-23T15:22:07.377Z,-4.07
2023-01-23T15:23:13.454Z,-4.11
2023-01-23T15:24:04.327Z,-4.06
2023-01-23T15:29:18.558Z,-4.18
2023-01-23T15:32:23.911Z,-4.08
2023-01-23T15:34:24.328Z,-4.13
2023-01-23T15:35:22.443Z,-4.13
2023-01-23T15:36:27.190Z,-4.17
2023-01-23T15:37:24.919Z,-4.12
2023-01-23T15:38:23.436Z,-4.17
2023-01-23T15:39:31.367Z,-4.18
2023-01-23T15:40:28.399Z,-4.15
2023-01-23T15:42:34.172Z,-4.09
2023-01-23T15:43:30.420Z,-4.12
2023-01-23T15:44:31.905Z,-4.08
2023-01-23T15:45:30.428Z,-4.05
2023-01-23T15:46:30.463Z,-4.04
2023-01-23T15:47:31.297Z,-4.06
2023-01-23T15:48:30.458Z,-4.17
2023-01-23T15:49:31.419Z,-4.15
2023-01-23T15:50:30.538Z,-4.17
2023-01-23T15:51:30.598Z,-4.15
2023-01-23T15:53:31.099Z,-4.15
2023-01-23T15:54:32.986Z,-4.07
2023-01-23T15:55:31.093Z,-4.08
2023-01-23T15:56:32.396Z,-4.07
2023-01-23T15:57:31.132Z,-4.15
2023-01-23T15:58:31.156Z,-4.14
2023-01-23T15:59:32.896Z,-4.15
2023-01-23T16:00:31.435Z,-4.17
2023-01-23T16:01:31.305Z,-4.19
2023-01-23T16:02:33.612Z,-4.21
2023-01-23T16:03:32.413Z,-4.22
2023-01-23T16:04:32.623Z,-4.24